Time;durP1;ratioP1;P1;durP2;ratioP2;P2;SDS_P1;SDS_P2;PMS_P1;PMS_P2;Temp;Humidity;BMP_temperature;BMP_pressure;BME280_temperature;BME280_humidity;BME280_pressure;Samples;Min_cycle;Max_cycle;Signal;HPM_P1;HPM_P2
2022/04/16 00:01:47;;;;;;;0.10;0.10;;;;;;;14.87;43.09;98865.66;4842628;29;20044;-75
2022/04/16 00:04:13;;;;;;;0.00;0.00;;;;;;;14.82;43.42;98868.47;4842886;29;20072;-76
2022/04/16 00:06:38;;;;;;;0.00;0.00;;;;;;;14.73;43.70;98864.94;4842557;29;20083;-75
2022/04/16 00:09:04;;;;;;;0.10;0.10;;;;;;;14.64;43.63;98864.84;4826144;29;20038;-75
2022/04/16 00:11:29;;;;;;;0.00;0.00;;;;;;;14.59;43.75;98873.06;4842834;29;20056;-75
2022/04/16 00:13:55;;;;;;;0.00;0.00;;;;;;;14.51;43.91;98874.59;4842472;29;20026;-75
2022/04/16 00:16:21;;;;;;;0.00;0.00;;;;;;;14.47;44.10;98881.69;4842674;29;20493;-75
2022/04/16 00:18:48;;;;;;;0.10;0.10;;;;;;;14.36;44.59;98872.28;4840634;29;20026;-74
2022/04/16 00:21:13;;;;;;;0.10;0.10;;;;;;;14.30;44.63;98879.66;4842264;29;20041;-74
2022/04/16 00:23:40;;;;;;;0.00;0.00;;;;;;;14.25;44.52;98890.53;4841699;29;20431;-74
2022/04/16 00:26:07;;;;;;;0.15;0.15;;;;;;;14.16;45.21;98884.28;4842511;29;20145;-74
2022/04/16 00:28:33;;;;;;;0.10;0.10;;;;;;;14.07;45.15;98873.44;4825651;29;20061;-74
2022/04/16 00:30:59;;;;;;;0.10;0.10;;;;;;;13.94;45.34;98885.84;4842434;29;20030;-74
2022/04/16 00:33:25;;;;;;;0.00;0.00;;;;;;;13.81;45.52;98881.28;4842399;29;20482;-74
2022/04/16 00:35:51;;;;;;;0.00;0.00;;;;;;;13.73;45.80;98878.22;4842162;29;20116;-74
2022/04/16 00:38:17;;;;;;;0.00;0.00;;;;;;;13.63;46.18;98874.94;4842003;29;20109;-74
2022/04/16 00:40:42;;;;;;;0.00;0.00;;;;;;;13.55;46.14;98882.59;4841900;29;20034;-74
2022/04/16 00:43:08;;;;;;;0.10;0.10;;;;;;;13.42;46.49;98873.44;4842216;29;20458;-74
2022/04/16 00:45:34;;;;;;;0.00;0.00;;;;;;;13.43;46.34;98887.69;4841933;29;20029;-74
2022/04/16 00:47:59;;;;;;;0.00;0.00;;;;;;;13.39;47.05;98879.44;4842177;29;20062;-74
2022/04/16 00:50:27;;;;;;;0.00;0.00;;;;;;;13.43;46.89;98885.78;4842093;29;20034;-74
2022/04/16 00:52:52;;;;;;;0.10;0.10;;;;;;;13.38;46.96;98880.50;4841821;29;20042;-74
2022/04/16 00:55:17;;;;;;;0.10;0.10;;;;;;;13.31;47.75;98880.09;4856101;29;20026;-74
2022/04/16 00:57:43;;;;;;;0.00;0.00;;;;;;;13.31;47.71;98888.13;4841644;29;20022;-74
2022/04/16 01:00:11;;;;;;;0.00;0.00;;;;;;;13.32;47.98;98891.63;4842267;29;20034;-74
2022/04/16 01:02:37;;;;;;;0.00;0.00;;;;;;;13.28;47.52;98884.16;4841637;29;20030;-74
2022/04/16 01:05:04;;;;;;;0.00;0.00;;;;;;;13.23;48.11;98886.13;4841837;29;20034;-74
2022/04/16 01:07:30;;;;;;;0.00;0.00;;;;;;;13.22;47.83;98881.84;4841584;29;20033;-74
2022/04/16 01:09:56;;;;;;;0.08;0.08;;;;;;;13.20;48.09;98879.47;4841966;29;20034;-74
2022/04/16 01:12:21;;;;;;;0.10;0.10;;;;;;;13.18;48.04;98875.50;4841904;29;20057;-74
2022/04/16 01:14:50;;;;;;;0.10;0.10;;;;;;;13.10;48.11;98869.72;4855516;29;20110;-74
2022/04/16 01:17:15;;;;;;;;;;;;;;;13.10;48.10;98877.78;4841923;29;20088;-76
2022/04/16 01:19:41;;;;;;;0.00;0.00;;;;;;;13.08;48.37;98881.84;4841069;29;20397;-74
2022/04/16 01:22:11;;;;;;;0.10;0.10;;;;;;;13.04;48.30;98870.91;4840250;29;20038;-74
2022/04/16 01:24:37;;;;;;;0.10;0.10;;;;;;;13.09;48.12;98868.13;4841277;29;20054;-76
2022/04/16 01:27:03;;;;;;;0.05;0.05;;;;;;;13.03;49.07;98857.78;4841421;29;20037;-74
2022/04/16 01:29:28;;;;;;;0.05;0.05;;;;;;;13.00;48.94;98856.50;4841643;29;20486;-75
2022/04/16 01:31:54;;;;;;;0.30;0.30;;;;;;;12.98;48.44;98861.34;4840871;29;20082;-75
2022/04/16 01:34:20;;;;;;;0.10;0.10;;;;;;;12.91;49.12;98853.69;4840843;29;20045;-75
2022/04/16 01:36:46;;;;;;;0.10;0.10;;;;;;;12.93;48.56;98846.13;4840848;29;20033;-74
2022/04/16 01:39:11;;;;;;;0.08;0.08;;;;;;;12.88;49.03;98832.81;4824814;29;20053;-74
2022/04/16 01:41:37;;;;;;;0.03;0.03;;;;;;;12.93;49.36;98846.13;4840782;29;20133;-73
2022/04/16 01:44:03;;;;;;;0.00;0.00;;;;;;;12.90;49.33;98846.75;4841203;29;20026;-74
2022/04/16 01:46:29;;;;;;;0.08;0.08;;;;;;;12.86;49.51;98848.41;4841099;29;20037;-74
2022/04/16 01:48:55;;;;;;;0.00;0.00;;;;;;;12.87;49.24;98843.84;4840859;29;20427;-74
2022/04/16 01:51:21;;;;;;;0.00;0.00;;;;;;;12.84;49.45;98842.56;4841087;29;20076;-74
2022/04/16 01:53:47;;;;;;;0.10;0.10;;;;;;;12.78;49.25;98846.41;4840755;29;20023;-74
2022/04/16 01:56:12;;;;;;;0.00;0.00;;;;;;;12.78;49.66;98855.25;4840952;29;20045;-74
2022/04/16 01:58:38;;;;;;;0.00;0.00;;;;;;;12.72;50.00;98852.94;4840646;29;20034;-74
2022/04/16 02:01:05;;;;;;;0.10;0.10;;;;;;;12.64;49.85;98847.16;4841102;29;20077;-74
2022/04/16 02:03:34;;;;;;;0.00;0.00;;;;;;;12.61;49.89;98855.81;4841177;29;20034;-74
2022/04/16 02:06:00;;;;;;;0.00;0.00;;;;;;;12.52;49.54;98846.84;4824470;29;20034;-74
2022/04/16 02:08:26;;;;;;;0.00;0.00;;;;;;;12.40;49.27;98847.31;4840484;29;20589;-76
2022/04/16 02:10:51;;;;;;;0.10;0.10;;;;;;;12.31;49.94;98849.84;4840301;29;20033;-76
2022/04/16 02:13:17;;;;;;;0.00;0.00;;;;;;;12.28;50.33;98837.03;4840711;29;20034;-74
2022/04/16 02:15:42;;;;;;;0.00;0.00;;;;;;;12.22;50.49;98840.88;4840502;29;20113;-74
2022/04/16 02:18:08;;;;;;;0.00;0.00;;;;;;;12.26;50.06;98849.94;4840698;29;20113;-74
2022/04/16 02:20:36;;;;;;;0.00;0.00;;;;;;;12.19;50.31;98840.66;4840161;29;20034;-74
2022/04/16 02:23:02;;;;;;;0.10;0.10;;;;;;;12.11;50.74;98845.59;4840913;29;20040;-74
2022/04/16 02:25:27;;;;;;;0.10;0.10;;;;;;;12.11;51.35;98836.78;4854715;29;20064;-74
2022/04/16 02:27:53;;;;;;;0.00;0.00;;;;;;;12.02;51.40;98833.94;4840122;29;20129;-75
2022/04/16 02:30:19;;;;;;;0.00;0.00;;;;;;;12.03;51.36;98840.88;4840551;29;20030;-73
2022/04/16 02:32:47;;;;;;;0.00;0.00;;;;;;;11.97;51.30;98828.66;4840319;29;20029;-74
2022/04/16 02:35:14;;;;;;;0.00;0.00;;;;;;;11.98;51.68;98843.66;4840535;29;20091;-74
2022/04/16 02:37:41;;;;;;;0.00;0.00;;;;;;;11.97;51.47;98845.53;4840185;29;20041;-74
2022/04/16 02:40:07;;;;;;;0.10;0.10;;;;;;;11.94;52.41;98847.97;4840182;29;20399;-74
2022/04/16 02:42:37;;;;;;;0.00;0.00;;;;;;;11.87;51.77;98842.97;4840248;29;20069;-73
2022/04/16 02:47:52;;;;;;;0.03;0.03;;;;;;;11.87;52.23;98842.19;4844022;29;20060;-74
2022/04/16 02:50:19;;;;;;;0.00;0.00;;;;;;;11.81;52.28;98844.91;4844182;29;20061;-74
2022/04/16 02:52:46;;;;;;;0.00;0.00;;;;;;;11.79;52.78;98838.25;4843933;29;20468;-74
2022/04/16 02:55:15;;;;;;;0.10;0.10;;;;;;;11.75;52.64;98845.28;4844128;29;20034;-74
2022/04/16 02:57:42;;;;;;;0.00;0.00;;;;;;;11.73;52.62;98847.44;4844052;29;20029;-73
2022/04/16 03:00:08;;;;;;;0.10;0.10;;;;;;;11.71;52.35;98839.69;4844034;29;20034;-76
2022/04/16 03:02:33;;;;;;;0.00;0.00;;;;;;;11.74;52.90;98836.41;4843946;29;20623;-74
2022/04/16 03:04:58;;;;;;;0.15;0.15;;;;;;;11.75;52.87;98831.88;4843694;29;20109;-74
2022/04/16 03:07:24;;;;;;;0.00;0.00;;;;;;;11.76;52.73;98841.50;4843889;29;20045;-73
2022/04/16 03:09:49;;;;;;;0.00;0.00;;;;;;;11.75;52.84;98842.59;4857771;29;20037;-75
2022/04/16 03:12:14;;;;;;;0.00;0.00;;;;;;;11.74;52.76;98841.00;4843770;29;20034;-74
2022/04/16 03:17:33;;;;;;;0.08;0.08;;;;;;;11.64;53.29;98844.59;4843643;29;20064;-74
2022/04/16 03:19:59;;;;;;;0.00;0.00;;;;;;;11.62;54.03;98842.22;4843377;29;20090;-75
2022/04/16 03:22:25;;;;;;;0.00;0.00;;;;;;;11.61;53.92;98839.81;4843597;29;20547;-74
2022/04/16 03:24:51;;;;;;;0.00;0.00;;;;;;;11.61;54.26;98845.16;4843415;29;20113;-74
2022/04/16 03:27:16;;;;;;;0.00;0.00;;;;;;;11.57;54.26;98836.94;4843525;29;20479;-76
2022/04/16 03:29:42;;;;;;;0.00;0.00;;;;;;;11.58;54.07;98832.38;4843321;29;20045;-76
2022/04/16 03:32:07;;;;;;;0.00;0.00;;;;;;;11.57;54.22;98836.94;4843497;29;20402;-75
2022/04/16 03:34:33;;;;;;;0.00;0.00;;;;;;;11.64;54.15;98844.59;4843456;29;20030;-76
2022/04/16 03:36:58;;;;;;;0.05;0.05;;;;;;;11.66;54.31;98842.44;4843168;29;20486;-75
2022/04/16 03:39:24;;;;;;;0.10;0.10;;;;;;;11.67;53.86;98844.03;4843018;29;20030;-74
2022/04/16 03:41:49;;;;;;;0.10;0.10;;;;;;;11.68;54.59;98843.75;4842931;29;20436;-75
2022/04/16 03:44:15;;;;;;;0.00;0.00;;;;;;;11.68;53.95;98849.09;4842987;29;20502;-75
2022/04/16 03:46:41;;;;;;;0.00;0.00;;;;;;;11.66;54.63;98851.28;4843043;29;20101;-75
2022/04/16 03:49:06;;;;;;;0.00;0.00;;;;;;;11.68;53.98;98851.78;4843446;29;20479;-75
2022/04/16 03:51:31;;;;;;;0.00;0.00;;;;;;;11.81;54.43;98854.84;4843151;29;20090;-75
2022/04/16 03:59:59;;;;;;;0.00;0.00;;;;;;;11.96;53.96;98865.38;4843092;29;20089;-74
2022/04/16 04:02:10;;;;;;;0.00;0.00;;;;;;;12.52;53.28;98849.53;4842730;29;20044;-74
2022/04/16 04:04:35;;;;;;;0.00;0.00;;;;;;;12.80;52.60;98858.47;4842606;29;20029;-74
2022/04/16 04:07:01;;;;;;;0.05;0.05;;;;;;;13.02;52.40;98858.88;4842361;29;20030;-74
2022/04/16 04:09:26;;;;;;;0.00;0.00;;;;;;;13.24;51.89;98853.63;4842843;29;20040;-74
2022/04/16 04:11:52;;;;;;;0.03;0.03;;;;;;;13.41;51.50;98849.56;4842300;29;20098;-74
2022/04/16 04:14:17;;;;;;;0.00;0.00;;;;;;;13.60;51.10;98858.31;4843003;29;20046;-74
2022/04/16 04:16:42;;;;;;;0.10;0.10;;;;;;;13.76;50.42;98860.69;4842505;29;20526;-75
2022/04/16 04:19:08;;;;;;;0.00;0.00;;;;;;;13.93;50.37;98857.38;4842238;29;20030;-74
2022/04/16 04:21:33;;;;;;;0.10;0.10;;;;;;;14.16;49.80;98866.25;4842607;29;20037;-75
2022/04/16 04:23:58;;;;;;;0.10;0.10;;;;;;;14.35;49.50;98862.59;4856518;29;20097;-75
2022/04/16 04:26:25;;;;;;;0.10;0.10;;;;;;;14.60;49.01;98868.47;4842510;29;20041;-74
2022/04/16 04:28:51;;;;;;;0.00;0.00;;;;;;;14.76;48.53;98864.34;4842254;29;20038;-74
2022/04/16 04:31:16;;;;;;;0.00;0.00;;;;;;;14.97;48.47;98863.81;4842115;29;20037;-74
2022/04/16 04:33:42;;;;;;;0.00;0.00;;;;;;;15.18;48.00;98855.97;4842080;29;20045;-74
2022/04/16 04:36:07;;;;;;;0.10;0.10;;;;;;;15.38;47.13;98857.31;4842602;29;20030;-74
2022/04/16 04:38:32;;;;;;;0.10;0.10;;;;;;;15.53;46.56;98851.47;4842243;29;20037;-74
2022/04/16 04:41:00;;;;;;;0.10;0.10;;;;;;;15.71;45.86;98861.50;4841892;29;20069;-74
2022/04/16 04:43:25;;;;;;;0.00;0.00;;;;;;;15.92;45.50;98861.75;4842278;29;20037;-74
2022/04/16 04:45:51;;;;;;;0.10;0.10;;;;;;;16.03;44.95;98846.81;4842093;29;20034;-76
2022/04/16 04:48:16;;;;;;;0.10;0.10;;;;;;;16.20;44.76;98854.13;4856218;29;20095;-75
2022/04/16 04:50:42;;;;;;;0.20;0.20;;;;;;;16.33;44.07;98853.16;4842008;29;20041;-75
2022/04/16 04:53:07;;;;;;;0.00;0.00;;;;;;;16.37;43.49;98849.81;4841313;29;20117;-76
2022/04/16 04:55:33;;;;;;;0.05;0.05;;;;;;;16.45;43.58;98849.03;4841974;29;20094;-76
2022/04/16 04:57:58;;;;;;;0.10;0.10;;;;;;;16.57;43.22;98843.75;4841692;29;20491;-76
2022/04/16 05:00:24;;;;;;;0.00;0.00;;;;;;;16.63;43.56;98849.78;4841926;29;20029;-76
2022/04/16 05:02:49;;;;;;;0.10;0.10;;;;;;;16.74;43.71;98847.53;4841592;29;20555;-76
2022/04/16 05:05:16;;;;;;;0.08;0.08;;;;;;;16.80;43.24;98848.94;4841850;29;20041;-76
2022/04/16 05:07:42;;;;;;;0.00;0.00;;;;;;;16.94;43.04;98854.19;4841796;29;20064;-76
2022/04/16 05:10:08;;;;;;;0.00;0.00;;;;;;;17.01;43.02;98838.25;4841245;29;20037;-76
2022/04/16 05:12:34;;;;;;;0.10;0.10;;;;;;;17.17;42.67;98853.94;4841565;29;20045;-76
2022/04/16 05:14:59;;;;;;;0.00;0.00;;;;;;;17.22;42.63;98859.97;4841446;29;20030;-76
2022/04/16 05:17:24;;;;;;;0.00;0.00;;;;;;;17.20;42.64;98850.56;4841343;29;20550;-76
2022/04/16 05:19:50;;;;;;;0.10;0.10;;;;;;;17.34;42.92;98864.66;4841288;29;20041;-75
2022/04/16 05:22:15;;;;;;;0.10;0.10;;;;;;;17.43;42.13;98861.91;4841499;29;20108;-75
2022/04/16 05:24:41;;;;;;;0.00;0.00;;;;;;;17.52;41.68;98870.78;4841452;29;20163;-76
2022/04/16 05:27:09;;;;;;;0.00;0.00;;;;;;;17.53;41.21;98866.97;4841449;29;20402;-75
2022/04/16 05:29:48;;;;;;;0.00;0.00;;;;;;;17.64;41.31;98874.69;4841383;29;20032;-75
2022/04/16 05:32:19;;;;;;;0.00;0.00;;;;;;;17.70;41.25;98878.78;4841694;29;20036;-75
2022/04/16 05:34:44;;;;;;;0.10;0.10;;;;;;;17.70;40.88;98881.47;4841273;29;20105;-75
2022/04/16 05:37:10;;;;;;;0.00;0.00;;;;;;;17.71;40.57;98886.59;4841258;29;20537;-75
2022/04/16 05:39:37;;;;;;;0.00;0.00;;;;;;;17.72;40.61;98877.34;4840950;29;20029;-75
2022/04/16 05:42:02;;;;;;;0.00;0.00;;;;;;;17.81;40.94;98876.50;4840785;29;20542;-75
2022/04/16 05:44:28;;;;;;;0.00;0.00;;;;;;;17.89;40.65;98886.47;4841362;29;20030;-75
2022/04/16 05:46:53;;;;;;;0.00;0.00;;;;;;;17.97;41.49;98884.84;4854937;29;20030;-75
2022/04/16 05:49:18;;;;;;;0.00;0.00;;;;;;;18.07;40.90;98879.06;4840840;29;20030;-75
2022/04/16 05:51:44;;;;;;;0.20;0.20;;;;;;;18.20;40.60;98880.72;4855121;29;20102;-75
2022/04/16 05:54:10;;;;;;;0.00;0.00;;;;;;;18.24;40.18;98876.19;4840520;29;20513;-75
2022/04/16 05:56:35;;;;;;;0.00;0.00;;;;;;;18.35;40.48;98868.47;4840822;29;20064;-75
2022/04/16 05:59:01;;;;;;;0.05;0.05;;;;;;;18.42;40.22;98870.66;4854683;29;20029;-74
2022/04/16 06:01:26;;;;;;;0.05;0.05;;;;;;;18.56;40.33;98864.94;4840255;29;20034;-75
2022/04/16 06:03:52;;;;;;;0.00;0.00;;;;;;;18.70;40.10;98875.47;4854016;29;20034;-75
2022/04/16 06:06:17;;;;;;;0.00;0.00;;;;;;;18.79;39.47;98868.06;4840479;29;20045;-75
2022/04/16 06:08:43;;;;;;;0.00;0.00;;;;;;;18.87;39.47;98872.59;4854315;29;20449;-76
2022/04/16 06:11:08;;;;;;;0.00;0.00;;;;;;;18.94;39.40;98871.28;4839927;29;20034;-76
2022/04/16 06:13:34;;;;;;;0.00;0.00;;;;;;;18.98;39.53;98872.97;4840045;29;20107;-76
2022/04/16 06:16:00;;;;;;;0.00;0.00;;;;;;;19.03;39.38;98864.63;4839838;29;20034;-75
2022/04/16 06:18:26;;;;;;;0.00;0.00;;;;;;;19.10;39.54;98866.75;4839864;29;20026;-76
2022/04/16 06:20:51;;;;;;;0.00;0.00;;;;;;;19.14;39.31;98872.31;4839325;29;20042;-74
2022/04/16 06:23:19;;;;;;;0.00;0.00;;;;;;;19.14;39.46;98861.47;4853923;29;20030;-76
2022/04/16 06:25:44;;;;;;;;;;;;;;;19.18;39.09;98868.59;4823932;29;20034;-76
2022/04/16 06:28:10;;;;;;;0.00;0.00;;;;;;;19.28;39.00;98869.28;4839532;29;20026;-75
2022/04/16 06:30:35;;;;;;;0.00;0.00;;;;;;;19.29;38.46;98868.94;4839954;29;20566;-76
2022/04/16 06:33:01;;;;;;;0.10;0.10;;;;;;;19.33;38.88;98872.56;4839404;29;20178;-76
2022/04/16 06:35:26;;;;;;;0.20;0.20;;;;;;;19.47;38.94;98869.50;4839602;29;20147;-76
2022/04/16 06:37:52;;;;;;;0.10;0.10;;;;;;;19.57;38.23;98857.41;4839502;29;20034;-76
2022/04/16 06:40:17;;;;;;;0.10;0.10;;;;;;;19.66;38.15;98865.41;4839756;29;20041;-75
2022/04/16 06:42:43;;;;;;;0.00;0.00;;;;;;;19.70;37.79;98863.63;4839836;29;20056;-75
2022/04/16 06:45:10;;;;;;;0.10;0.10;;;;;;;19.78;38.24;98851.81;4839530;29;20105;-76
2022/04/16 06:47:36;;;;;;;0.10;0.10;;;;;;;19.83;38.13;98859.78;4839440;29;20183;-76
2022/04/16 06:50:04;;;;;;;0.08;0.08;;;;;;;19.86;38.34;98852.88;4823074;29;20414;-77
2022/04/16 06:52:29;;;;;;;0.00;0.00;;;;;;;19.91;38.51;98855.34;4839635;29;20099;-75
2022/04/16 06:54:59;;;;;;;0.00;0.00;;;;;;;19.97;38.45;98851.25;4839406;29;20042;-75
2022/04/16 06:57:27;;;;;;;0.00;0.00;;;;;;;20.05;38.43;98848.75;4839615;29;20033;-75
2022/04/16 06:59:53;;;;;;;0.10;0.10;;;;;;;20.03;38.21;98843.66;4839341;29;20038;-75
2022/04/16 07:02:18;;;;;;;0.20;0.20;;;;;;;20.09;38.61;98852.34;4839553;29;20090;-76
2022/04/16 07:04:44;;;;;;;0.10;0.10;;;;;;;20.17;39.13;98846.00;4853673;29;20566;-76
2022/04/16 07:07:09;;;;;;;0.00;0.00;;;;;;;20.21;39.16;98851.53;4839374;29;20581;-76
2022/04/16 07:09:38;;;;;;;0.00;0.00;;;;;;;20.25;39.09;98844.25;4840268;29;20040;-75
2022/04/16 07:12:09;;;;;;;0.00;0.00;;;;;;;20.27;39.43;98842.00;4839968;29;20026;-76
2022/04/16 07:14:35;;;;;;;0.17;0.17;;;;;;;20.27;39.42;98837.34;4840066;29;20478;-76
2022/04/16 07:17:01;;;;;;;0.00;0.00;;;;;;;20.22;37.68;98839.53;4839799;29;20030;-76
2022/04/16 07:19:30;;;;;;;0.00;0.00;;;;;;;20.06;37.02;98842.97;4840028;29;20036;-76
2022/04/16 07:21:56;;;;;;;0.08;0.08;;;;;;;19.97;36.84;98834.97;4839820;29;20090;-76
2022/04/16 07:24:23;;;;;;;0.00;0.00;;;;;;;19.88;37.43;98839.72;4839792;29;20042;-76
2022/04/16 07:26:49;;;;;;;0.00;0.00;;;;;;;19.77;37.56;98844.03;4840001;29;20376;-76
2022/04/16 07:29:15;;;;;;;0.10;0.10;;;;;;;19.73;38.13;98843.16;4839756;29;20038;-76
2022/04/16 07:31:40;;;;;;;0.00;0.00;;;;;;;19.58;38.42;98842.72;4840291;29;20121;-76
2022/04/16 07:34:06;;;;;;;0.10;0.10;;;;;;;19.33;38.78;98833.81;4842879;29;20113;-75
2022/04/16 07:36:31;;;;;;;0.20;0.20;;;;;;;19.24;39.38;98838.53;4843400;29;20026;-76
2022/04/16 07:38:57;;;;;;;0.30;0.30;;;;;;;19.16;39.94;98832.91;4842859;29;20030;-76
2022/04/16 07:41:23;;;;;;;0.10;0.10;;;;;;;19.15;40.07;98835.94;4843122;29;20062;-76
2022/04/16 07:43:48;;;;;;;0.10;0.10;;;;;;;19.03;40.35;98826.69;4843560;29;20032;-76
2022/04/16 07:46:15;;;;;;;0.32;0.32;;;;;;;18.93;41.02;98812.78;4842946;29;20113;-76
2022/04/16 07:48:40;;;;;;;2.20;1.17;;;;;;;18.93;41.65;98821.72;4842951;29;20410;-76
2022/04/16 07:51:06;;;;;;;0.20;0.20;;;;;;;18.95;40.72;98815.97;4826339;29;20038;-76
2022/04/16 07:53:32;;;;;;;0.00;0.00;;;;;;;18.93;39.64;98816.31;4843152;29;20044;-76
2022/04/16 07:55:57;;;;;;;0.08;0.08;;;;;;;18.95;39.69;98815.97;4843048;29;20042;-76
2022/04/16 07:58:24;;;;;;;0.15;0.15;;;;;;;18.98;40.47;98817.97;4843154;29;20034;-76
2022/04/16 08:00:50;;;;;;;0.30;0.30;;;;;;;19.10;39.76;98822.63;4842984;29;20030;-76
2022/04/16 08:03:15;;;;;;;0.10;0.10;;;;;;;19.21;38.98;98818.31;4842713;29;20037;-76
2022/04/16 08:05:41;;;;;;;0.00;0.00;;;;;;;19.35;38.82;98818.78;4842687;29;20683;-76
2022/04/16 08:08:07;;;;;;;3.53;0.52;;;;;;;19.51;38.54;98815.38;4842643;29;20034;-76
2022/04/16 08:10:34;;;;;;;0.00;0.00;;;;;;;19.68;39.18;98817.03;4842760;29;20409;-76
2022/04/16 08:13:00;;;;;;;0.10;0.10;;;;;;;19.86;38.52;98816.78;4842452;29;20037;-76
2022/04/16 08:15:25;;;;;;;0.05;0.05;;;;;;;20.05;38.76;98810.75;4842694;29;20038;-76
2022/04/16 08:17:50;;;;;;;0.10;0.10;;;;;;;20.24;37.53;98810.13;4842495;29;20062;-76
2022/04/16 08:20:16;;;;;;;0.00;0.00;;;;;;;20.43;37.35;98809.44;4842117;29;20026;-76
2022/04/16 08:22:46;;;;;;;0.00;0.00;;;;;;;20.62;36.55;98809.56;4842648;29;20030;-76
2022/04/16 08:27:47;;;;;;;0.10;0.10;;;;;;;20.88;36.71;98802.84;4842681;29;20034;-76
2022/04/16 08:30:15;;;;;;;0.25;0.25;;;;;;;21.02;35.75;98801.59;4841979;29;20037;-76
2022/04/16 08:32:42;;;;;;;0.00;0.00;;;;;;;21.09;36.02;98790.91;4842493;29;20066;-76
2022/04/16 08:35:12;;;;;;;0.80;0.57;;;;;;;21.19;36.06;98790.38;4856197;29;20445;-76
2022/04/16 08:37:38;;;;;;;0.10;0.10;;;;;;;21.21;35.65;98785.34;4842312;29;20026;-76
2022/04/16 08:40:07;;;;;;;0.93;0.88;;;;;;;21.27;36.91;98786.66;4841758;29;20073;-75
2022/04/16 08:42:34;;;;;;;0.00;0.00;;;;;;;21.36;36.12;98791.13;4842049;29;20058;-76
2022/04/16 08:45:01;;;;;;;0.05;0.05;;;;;;;21.40;35.57;98792.00;4841348;29;20113;-75
2022/04/16 08:47:26;;;;;;;0.00;0.00;;;;;;;21.48;36.04;98785.56;4842104;29;20115;-75
2022/04/16 08:49:52;;;;;;;0.30;0.30;;;;;;;21.53;35.56;98781.78;4841866;29;20696;-75
2022/04/16 08:52:18;;;;;;;0.15;0.15;;;;;;;21.62;35.64;98778.88;4841821;29;20475;-75
2022/04/16 08:54:43;;;;;;;0.05;0.05;;;;;;;21.71;35.95;98776.75;4842106;29;20034;-76
2022/04/16 08:57:09;;;;;;;0.05;0.05;;;;;;;21.77;35.97;98785.44;4841998;29;20038;-75
2022/04/16 08:59:34;;;;;;;0.03;0.03;;;;;;;21.84;35.55;98778.19;4841935;29;20518;-77
2022/04/16 09:02:00;;;;;;;0.15;0.15;;;;;;;21.88;36.06;98767.38;4841657;29;20030;-76
2022/04/16 09:04:31;;;;;;;0.00;0.00;;;;;;;22.00;35.91;98766.44;4841839;29;20086;-76
2022/04/16 09:07:01;;;;;;;0.10;0.10;;;;;;;22.11;35.63;98766.66;4841752;29;20514;-75
2022/04/16 09:09:27;;;;;;;0.05;0.05;;;;;;;22.19;35.60;98758.25;4841993;29;20044;-75
2022/04/16 09:11:53;;;;;;;0.00;0.00;;;;;;;22.09;35.11;98760.75;4841941;29;20045;-75
2022/04/16 09:14:18;;;;;;;0.15;0.15;;;;;;;22.06;34.76;98763.06;4841152;29;20483;-76
2022/04/16 09:16:44;;;;;;;0.10;0.10;;;;;;;22.10;34.54;98765.84;4841589;29;20503;-76
2022/04/16 09:19:16;;;;;;;0.45;0.45;;;;;;;22.10;34.71;98765.84;4841137;29;20030;-74
2022/04/16 09:21:43;;;;;;;0.52;0.52;;;;;;;22.09;34.79;98758.81;4841557;29;20125;-77
2022/04/16 09:24:09;;;;;;;0.33;0.33;;;;;;;22.09;34.91;98756.09;4841545;29;20030;-76
2022/04/16 09:26:37;;;;;;;0.10;0.10;;;;;;;22.13;35.53;98756.16;4841179;29;20798;-77
2022/04/16 09:29:07;;;;;;;;;;;;;;;22.18;36.39;98755.88;4841538;29;20042;-76
2022/04/16 09:31:34;;;;;;;0.10;0.10;;;;;;;22.28;36.53;98749.06;4841348;29;19912;-75
2022/04/16 09:34:00;;;;;;;0.15;0.15;;;;;;;22.37;35.67;98750.41;4840910;29;20029;-74
2022/04/16 09:36:27;;;;;;;0.57;0.38;;;;;;;22.38;34.93;98754.72;4855431;29;20476;-76
2022/04/16 09:39:07;;;;;;;0.17;0.17;;;;;;;22.36;34.93;98739.84;4840822;29;20034;-75
2022/04/16 09:41:34;;;;;;;0.10;0.10;;;;;;;22.46;35.49;98739.28;4840940;29;20080;-76
2022/04/16 09:44:00;;;;;;;0.00;0.00;;;;;;;22.50;35.88;98740.13;4840831;29;20072;-76
2022/04/16 09:46:28;;;;;;;0.00;0.00;;;;;;;22.58;34.86;98730.13;4841124;29;20034;-76
2022/04/16 09:49:03;;;;;;;0.20;0.20;;;;;;;22.60;34.60;98730.56;4841089;29;20042;-76
2022/04/16 09:51:34;;;;;;;0.10;0.10;;;;;;;22.67;34.98;98733.41;4824833;29;20466;-76
2022/04/16 09:54:03;;;;;;;0.10;0.10;;;;;;;22.65;34.31;98732.97;4841100;29;20397;-76
2022/04/16 09:56:31;;;;;;;0.20;0.20;;;;;;;22.58;34.45;98732.84;4840211;29;20112;-76
2022/04/16 09:59:00;;;;;;;0.00;0.00;;;;;;;22.61;34.63;98725.91;4841067;29;20057;-76
2022/04/16 10:01:25;;;;;;;0.08;0.08;;;;;;;22.59;34.38;98720.03;4841038;29;20125;-76
2022/04/16 10:03:54;;;;;;;0.28;0.28;;;;;;;22.57;33.59;98725.03;4840483;29;20113;-76
2022/04/16 10:06:21;;;;;;;0.10;0.10;;;;;;;22.52;33.68;98713.31;4840155;29;20045;-75
2022/04/16 10:08:52;;;;;;;0.10;0.10;;;;;;;22.54;34.08;98723.84;4840690;29;20030;-75
2022/04/16 10:11:41;;;;;;;0.30;0.30;;;;;;;22.55;34.28;98717.25;4840434;29;20125;-74
2022/04/16 10:14:17;;;;;;;0.10;0.10;;;;;;;22.64;34.00;98714.25;4840038;29;20036;-76
2022/04/16 10:17:02;;;;;;;0.10;0.10;;;;;;;22.70;33.99;98716.31;4840383;29;20057;-75
2022/04/16 10:19:40;;;;;;;0.43;0.43;;;;;;;22.76;33.20;98722.25;4840124;29;20470;-74
2022/04/16 10:22:05;;;;;;;0.00;0.00;;;;;;;22.78;32.59;98721.88;4840453;29;20029;-74
2022/04/16 10:24:31;;;;;;;0.00;0.00;;;;;;;22.83;32.56;98706.00;4839264;29;20046;-74
2022/04/16 10:27:04;;;;;;;0.00;0.00;;;;;;;22.86;32.13;98712.66;4840362;29;20037;-75
2022/04/16 10:29:39;;;;;;;0.10;0.10;;;;;;;22.85;32.39;98706.41;4840572;29;20056;-75
2022/04/16 10:32:15;;;;;;;0.30;0.30;;;;;;;22.88;31.77;98706.84;4839999;29;20109;-76
2022/04/16 10:34:42;;;;;;;0.00;0.00;;;;;;;22.88;31.96;98704.91;4840377;29;20513;-76
2022/04/16 10:37:07;;;;;;;0.63;0.15;;;;;;;22.93;32.47;98712.75;4840221;29;20073;-75
2022/04/16 10:39:35;;;;;;;0.20;0.20;;;;;;;23.05;32.45;98713.72;4840451;29;20062;-76
2022/04/16 10:42:03;;;;;;;0.00;0.00;;;;;;;23.12;32.42;98705.59;4840246;29;20052;-76
2022/04/16 10:44:41;;;;;;;0.08;0.08;;;;;;;23.15;32.22;98704.88;4840340;29;20057;-76
2022/04/16 10:47:12;;;;;;;0.00;0.00;;;;;;;23.23;31.85;98708.50;4839928;29;20042;-76
2022/04/16 10:49:40;;;;;;;0.00;0.00;;;;;;;23.28;31.14;98700.03;4838981;29;20090;-76
2022/04/16 10:52:18;;;;;;;0.20;0.20;;;;;;;23.29;31.10;98712.50;4840075;29;20033;-76
2022/04/16 10:54:43;;;;;;;0.00;0.00;;;;;;;23.34;30.97;98693.09;4839116;29;20098;-74
2022/04/16 10:57:11;;;;;;;0.00;0.00;;;;;;;23.44;30.71;98699.84;4840104;29;20038;-75
2022/04/16 10:59:41;;;;;;;0.00;0.00;;;;;;;23.51;30.40;98694.47;4840132;29;20022;-74
2022/04/16 11:02:26;;;;;;;0.22;0.22;;;;;;;23.57;29.48;98701.16;4839890;29;20595;-74
2022/04/16 11:05:05;;;;;;;0.10;0.10;;;;;;;23.58;29.63;98697.28;4840130;29;20443;-76
2022/04/16 11:07:35;;;;;;;0.05;0.05;;;;;;;23.70;29.79;98696.22;4841370;29;20393;-74
2022/04/16 11:10:01;;;;;;;0.08;0.08;;;;;;;23.78;30.49;98694.38;4843664;29;20038;-74
2022/04/16 11:12:27;;;;;;;0.10;0.10;;;;;;;23.94;29.40;98691.47;4843361;29;20041;-76
2022/04/16 11:14:53;;;;;;;0.00;0.00;;;;;;;23.95;28.87;98688.34;4843664;29;20034;-76
2022/04/16 11:17:19;;;;;;;0.00;0.00;;;;;;;23.92;28.46;98693.75;4843197;29;20034;-76
2022/04/16 11:19:47;;;;;;;0.00;0.00;;;;;;;23.89;28.50;98689.00;4843504;29;20509;-76
2022/04/16 11:22:13;;;;;;;0.25;0.25;;;;;;;23.81;28.00;98688.97;4843215;29;20042;-75
2022/04/16 11:24:39;;;;;;;0.10;0.10;;;;;;;23.72;27.95;98685.72;4843650;29;20041;-76
2022/04/16 11:35:24;;;;;;;0.47;0.40;;;;;;;23.63;28.68;98674.31;4843117;29;20133;-75
2022/04/16 11:37:53;;;;;;;0.15;0.15;;;;;;;23.67;27.97;98678.66;4842984;29;20038;-75
2022/04/16 11:40:19;;;;;;;0.75;0.75;;;;;;;23.56;27.67;98675.03;4842761;29;20038;-75
2022/04/16 11:42:45;;;;;;;0.85;0.85;;;;;;;23.53;27.43;98681.22;4842708;29;20054;-75
2022/04/16 11:45:11;;;;;;;0.52;0.52;;;;;;;23.43;27.66;98674.47;4843025;29;20022;-74
2022/04/16 11:47:37;;;;;;;0.10;0.10;;;;;;;23.46;28.09;98665.56;4843156;29;20041;-75
2022/04/16 11:50:06;;;;;;;0.15;0.15;;;;;;;23.52;28.13;98674.19;4843193;29;20038;-75
2022/04/16 11:52:33;;;;;;;0.00;0.00;;;;;;;23.53;27.36;98667.56;4843119;29;20038;-76
2022/04/16 11:55:15;;;;;;;0.10;0.10;;;;;;;23.47;27.40;98667.13;4843045;29;20036;-76